Time;durP1;ratioP1;P1;durP2;ratioP2;P2;SDS_P1;SDS_P2;PMS_P1;PMS_P2;Temp;Humidity;BMP_temperature;BMP_pressure;BME280_temperature;BME280_humidity;BME280_pressure;Samples;Min_cycle;Max_cycle;Signal;HPM_P1;HPM_P2
2022/08/28 00:00:21;;;;;;;7.95;2.42;;;;;18.10;101335.00;;;;12768032;22;20257;-80
2022/08/28 00:05:25;;;;;;;4.63;1.90;;;;;18.10;101330.00;;;;12794074;22;20190;-79
2022/08/28 00:10:27;;;;;;;8.98;2.30;;;;;18.10;101337.00;;;;12821772;22;20179;-79
2022/08/28 00:15:31;;;;;;;6.70;2.22;;;;;18.00;101338.00;;;;12837602;22;20864;-79
2022/08/28 00:20:33;;;;;;;4.07;2.00;;;;;18.00;101338.00;;;;12817140;22;20177;-79
2022/08/28 00:25:35;;;;;;;3.65;2.35;;;;;18.00;101338.00;;;;12792322;22;20194;-79
2022/08/28 00:30:41;;;;;;;8.25;2.47;;;;;18.00;101330.00;;;;12818652;22;20174;-79
2022/08/28 00:35:43;;;;;;;4.57;2.03;;;;;17.90;101349.00;;;;12818432;22;20190;-79
2022/08/28 00:40:47;;;;;;;8.13;2.17;;;;;17.90;101346.00;;;;12837876;22;20165;-78
2022/08/28 00:45:48;;;;;;;6.53;2.47;;;;;17.90;101349.00;;;;12838436;22;20221;-79
2022/08/28 00:56:11;;;;;;;6.38;2.10;;;;;17.80;101346.00;;;;12792700;22;20520;-79
2022/08/28 01:01:14;;;;;;;5.70;2.28;;;;;17.80;101349.00;;;;12838891;22;20158;-80
2022/08/28 01:06:19;;;;;;;4.50;1.98;;;;;17.80;101358.00;;;;12793071;22;20200;-80
2022/08/28 01:11:20;;;;;;;9.38;2.15;;;;;17.70;101368.00;;;;12794278;22;20170;-79
2022/08/28 01:16:22;;;;;;;4.70;2.00;;;;;17.70;101370.00;;;;12816914;22;20758;-80
2022/08/28 01:21:49;;;;;;;7.80;2.22;;;;;17.70;101360.00;;;;12794855;22;20197;-79
2022/08/28 01:26:50;;;;;;;5.85;2.30;;;;;17.70;101361.00;;;;12837968;22;20750;-80
2022/08/28 01:31:52;;;;;;;8.98;2.13;;;;;17.60;101356.00;;;;12792950;22;20224;-79
2022/08/28 01:36:53;;;;;;;6.03;2.30;;;;;17.60;101350.00;;;;12839192;22;20236;-79
2022/08/28 01:41:58;;;;;;;3.13;1.75;;;;;17.50;101360.00;;;;12816844;22;20190;-79
2022/08/28 01:46:59;;;;;;;6.00;1.85;;;;;17.50;101364.00;;;;12838605;22;20793;-79
2022/08/28 01:52:00;;;;;;;3.20;2.08;;;;;17.50;101367.00;;;;12769381;22;20181;-79
2022/08/28 01:57:04;;;;;;;6.60;2.28;;;;;17.40;101367.00;;;;12817440;23;20180;-79
2022/08/28 02:02:09;;;;;;;5.68;1.90;;;;;17.40;101371.00;;;;12791388;22;20220;-80
2022/08/28 02:07:10;;;;;;;6.25;2.42;;;;;17.30;101366.00;;;;12792472;22;20167;-80
2022/08/28 02:12:12;;;;;;;9.27;2.63;;;;;17.30;101362.00;;;;12768925;22;20307;-79
2022/08/28 02:17:13;;;;;;;4.40;2.15;;;;;17.30;101365.00;;;;12816454;22;20253;-79
2022/08/28 02:22:14;;;;;;;8.60;2.70;;;;;17.20;101373.00;;;;12790891;22;20190;-78
2022/08/28 02:27:15;;;;;;;8.00;3.03;;;;;17.20;101377.00;;;;12790965;22;20181;-79
2022/08/28 02:32:17;;;;;;;12.93;3.10;;;;;17.20;101378.00;;;;12791036;22;20240;-79
2022/08/28 02:37:20;;;;;;;6.03;3.03;;;;;17.10;101386.00;;;;12790703;22;20252;-80
2022/08/28 02:42:21;;;;;;;10.27;3.45;;;;;17.10;101379.00;;;;12818310;22;20202;-79
2022/08/28 02:47:23;;;;;;;7.80;2.78;;;;;17.00;101379.00;;;;12765675;22;20174;-79
2022/08/28 02:52:24;;;;;;;4.70;2.93;;;;;17.00;101382.00;;;;12792794;22;20224;-79
2022/08/28 02:57:26;;;;;;;8.68;3.40;;;;;16.90;101384.00;;;;12863460;22;20162;-79
2022/08/28 03:02:27;;;;;;;9.70;3.95;;;;;16.90;101388.00;;;;12791210;22;20240;-79
2022/08/28 03:07:29;;;;;;;8.15;3.80;;;;;16.90;101388.00;;;;12812083;22;20688;-79
2022/08/28 03:12:30;;;;;;;6.22;3.60;;;;;16.80;101402.00;;;;12791292;22;20654;-78
2022/08/28 03:17:32;;;;;;;12.52;4.45;;;;;16.80;101393.00;;;;12861640;22;20708;-79
2022/08/28 03:27:53;;;;;;;11.88;3.95;;;;;16.70;101396.00;;;;12790982;22;20172;-78
2022/08/28 03:32:55;;;;;;;10.33;4.10;;;;;16.70;101392.00;;;;12767257;22;20178;-79
2022/08/28 03:37:56;;;;;;;10.75;4.45;;;;;16.60;101408.00;;;;12815705;22;20198;-79
2022/08/28 03:42:57;;;;;;;8.45;4.40;;;;;16.60;101407.00;;;;12792628;22;20224;-79
2022/08/28 03:48:00;;;;;;;11.63;3.93;;;;;16.60;101410.00;;;;12793437;22;20513;-79
2022/08/28 03:53:01;;;;;;;9.80;4.40;;;;;16.60;101409.00;;;;12813547;22;20618;-79
2022/08/28 03:58:03;;;;;;;9.57;4.60;;;;;16.50;101414.00;;;;12793456;22;20261;-79
2022/08/28 04:03:04;;;;;;;9.90;4.20;;;;;16.50;101413.00;;;;12816277;22;20280;-80
2022/08/28 04:08:06;;;;;;;14.37;4.13;;;;;16.50;101415.00;;;;12818428;22;20375;-80
2022/08/28 04:13:09;;;;;;;13.23;4.70;;;;;16.40;101408.00;;;;12815851;22;20170;-79
2022/08/28 04:18:10;;;;;;;8.45;3.38;;;;;16.40;101410.00;;;;12863554;22;20271;-79
2022/08/28 04:23:12;;;;;;;13.80;4.25;;;;;16.40;101418.00;;;;12791445;22;20272;-79
2022/08/28 04:28:13;;;;;;;6.63;3.80;;;;;16.30;101416.00;;;;12836790;22;20241;-79
2022/08/28 04:33:15;;;;;;;15.07;3.93;;;;;16.30;101420.00;;;;12768652;22;20176;-79
2022/08/28 04:38:16;;;;;;;13.17;3.57;;;;;16.20;101427.00;;;;12767725;22;20873;-79
2022/08/28 04:43:18;;;;;;;13.90;4.30;;;;;16.20;101431.00;;;;12792007;22;20290;-79
2022/08/28 04:48:19;;;;;;;10.63;3.90;;;;;16.20;101441.00;;;;12815738;22;20174;-80
2022/08/28 04:53:21;;;;;;;10.73;4.10;;;;;16.10;101450.00;;;;12791173;22;20173;-79
2022/08/28 04:58:22;;;;;;;8.93;4.10;;;;;16.10;101451.00;;;;12862372;22;20174;-79
2022/08/28 05:03:25;;;;;;;12.40;4.30;;;;;16.00;101454.00;;;;12791244;22;20245;-79
2022/08/28 05:08:28;;;;;;;11.50;4.07;;;;;16.00;101465.00;;;;12863349;22;20226;-79
2022/08/28 05:13:29;;;;;;;7.67;3.43;;;;;16.10;101466.00;;;;12844798;22;20185;-80
2022/08/28 05:18:31;;;;;;;12.70;3.63;;;;;16.10;101467.00;;;;12793462;22;20197;-79
2022/08/28 05:23:33;;;;;;;11.80;3.90;;;;;16.20;101461.00;;;;12838587;22;20194;-79
2022/08/28 05:28:34;;;;;;;11.07;3.83;;;;;16.30;101477.00;;;;12793546;22;20166;-79
2022/08/28 05:33:35;;;;;;;9.60;3.10;;;;;16.50;101474.00;;;;12816874;22;20181;-80
2022/08/28 05:38:39;;;;;;;9.07;3.43;;;;;16.70;101476.00;;;;12791407;22;20281;-78
2022/08/28 05:43:41;;;;;;;9.90;3.83;;;;;17.00;101490.00;;;;12837413;22;20268;-79
2022/08/28 05:48:44;;;;;;;9.13;3.42;;;;;17.10;101478.00;;;;12791272;22;20252;-78
2022/08/28 05:53:48;;;;;;;10.75;3.58;;;;;16.90;101478.00;;;;12791451;22;20243;-79
2022/08/28 05:58:49;;;;;;;10.43;3.30;;;;;16.90;101492.00;;;;12767709;23;20203;-79
2022/08/28 06:04:00;;;;;;;15.75;3.22;;;;;16.90;101483.00;;;;12863183;22;20253;-79
2022/08/28 06:09:13;;;;;;;13.98;4.88;;;;;17.20;101492.00;;;;12793774;22;20249;-78
2022/08/28 06:14:19;;;;;;;9.20;3.55;;;;;17.50;101504.00;;;;12793290;22;20265;-78
2022/08/28 06:19:23;;;;;;;7.65;2.85;;;;;17.70;101510.00;;;;12770363;22;20302;-79
2022/08/28 06:24:26;;;;;;;11.70;3.28;;;;;18.10;101513.00;;;;12817180;22;20681;-79
2022/08/28 06:29:28;;;;;;;9.63;3.17;;;;;18.00;101512.00;;;;12769231;22;20170;-79
2022/08/28 06:34:30;;;;;;;10.75;3.17;;;;;17.60;101513.00;;;;12793652;22;20782;-78
2022/08/28 06:39:31;;;;;;;9.07;2.80;;;;;17.30;101520.00;;;;12794947;22;20190;-79
2022/08/28 06:44:32;;;;;;;10.27;2.80;;;;;18.00;101512.00;;;;12841517;22;20211;-78
2022/08/28 06:49:34;;;;;;;12.90;3.58;;;;;18.80;101520.00;;;;12819025;22;20197;-79
2022/08/28 06:54:35;;;;;;;11.13;2.88;;;;;19.30;101519.00;;;;12817197;22;20189;-79
2022/08/28 06:59:36;;;;;;;10.32;2.70;;;;;19.70;101522.00;;;;12818949;22;20188;-79
2022/08/28 07:04:38;;;;;;;8.18;2.72;;;;;20.10;101532.00;;;;12818340;22;20197;-79
2022/08/28 07:09:39;;;;;;;10.88;2.85;;;;;20.40;101521.00;;;;12767068;22;20424;-80
2022/08/28 07:14:41;;;;;;;7.50;2.42;;;;;20.60;101530.00;;;;12769127;22;20216;-80
2022/08/28 07:19:42;;;;;;;9.00;2.85;;;;;20.70;101538.00;;;;12816610;22;20510;-78
2022/08/28 07:24:44;;;;;;;5.70;1.98;;;;;20.80;101525.00;;;;12863068;22;20197;-79
2022/08/28 07:29:45;;;;;;;10.18;2.80;;;;;20.80;101534.00;;;;12816532;22;20232;-79
2022/08/28 07:34:47;;;;;;;6.50;2.45;;;;;20.60;101534.00;;;;12862872;22;20170;-79
2022/08/28 07:39:48;;;;;;;8.32;2.50;;;;;20.70;101539.00;;;;12836361;22;20193;-79
2022/08/28 07:44:50;;;;;;;8.40;2.72;;;;;20.90;101534.00;;;;12766995;22;20202;-79
2022/08/28 07:49:52;;;;;;;6.15;2.15;;;;;21.20;101533.00;;;;12790990;22;20197;-79
2022/08/28 07:54:54;;;;;;;8.57;2.22;;;;;21.20;101537.00;;;;12793519;22;20178;-80
2022/08/28 07:59:55;;;;;;;8.35;3.00;;;;;21.40;101537.00;;;;12793278;22;20194;-79
2022/08/28 08:04:57;;;;;;;10.90;2.35;;;;;21.70;101537.00;;;;12793275;22;20193;-79
2022/08/28 08:09:58;;;;;;;9.52;2.60;;;;;21.90;101550.00;;;;12846991;22;20184;-80
2022/08/28 08:15:00;;;;;;;5.72;2.40;;;;;22.20;101549.00;;;;12810814;22;20174;-79
2022/08/28 08:20:02;;;;;;;6.63;2.78;;;;;22.50;101552.00;;;;12792378;22;20177;-80
2022/08/28 08:25:04;;;;;;;9.68;2.53;;;;;23.00;101556.00;;;;12862467;22;20200;-79
2022/08/28 08:30:06;;;;;;;8.48;3.00;;;;;23.00;101554.00;;;;12817201;22;20178;-79
2022/08/28 08:35:07;;;;;;;7.22;2.22;;;;;23.10;101551.00;;;;12790028;22;20170;-80
2022/08/28 08:40:14;;;;;;;6.90;2.40;;;;;23.60;101547.00;;;;12791000;22;20190;-79
2022/08/28 08:45:20;;;;;;;8.27;2.22;;;;;23.70;101549.00;;;;12791699;22;20205;-79
2022/08/28 08:50:28;;;;;;;7.43;2.97;;;;;23.60;101561.00;;;;12816803;22;20166;-80
2022/08/28 08:55:36;;;;;;;8.30;2.78;;;;;23.50;101546.00;;;;12792097;22;20237;-79
2022/08/28 09:01:03;;;;;;;5.43;2.33;;;;;23.70;101546.00;;;;12791590;22;20178;-80
2022/08/28 09:06:11;;;;;;;8.00;2.70;;;;;24.30;101546.00;;;;12762360;22;20198;-79
2022/08/28 09:11:33;;;;;;;10.27;2.72;;;;;24.30;101548.00;;;;12790253;23;20181;-80
2022/08/28 09:16:39;;;;;;;7.65;2.53;;;;;24.80;101546.00;;;;12791402;23;20243;-78
2022/08/28 09:21:42;;;;;;;7.97;2.75;;;;;25.20;101548.00;;;;12860611;22;20750;-80
2022/08/28 09:26:51;;;;;;;5.32;2.35;;;;;25.50;101548.00;;;;12789109;22;20443;-80
2022/08/28 09:31:53;;;;;;;6.63;2.30;;;;;26.00;101543.00;;;;12790270;22;20174;-79
2022/08/28 09:36:57;;;;;;;7.85;2.38;;;;;26.10;101545.00;;;;12813154;22;20201;-79
2022/08/28 09:47:47;;;;;;;9.25;2.80;;;;;27.00;101551.00;;;;12815498;22;20653;-80
2022/08/28 09:52:50;;;;;;;8.63;2.55;;;;;26.80;101543.00;;;;12790265;22;20807;-79
2022/08/28 09:57:51;;;;;;;4.75;2.22;;;;;27.30;101542.00;;;;12815100;22;20669;-80
2022/08/28 10:03:17;;;;;;;9.27;2.47;;;;;27.30;101546.00;;;;12814684;22;20284;-79
2022/08/28 10:08:43;;;;;;;4.15;1.98;;;;;27.50;101540.00;;;;12766738;22;20224;-79
2022/08/28 10:14:34;;;;;;;8.70;2.63;;;;;27.30;101545.00;;;;12817650;22;20176;-79
2022/08/28 10:20:00;;;;;;;7.85;2.20;;;;;27.30;101541.00;;;;12793866;22;20173;-79
2022/08/28 10:25:08;;;;;;;8.05;2.33;;;;;27.20;101544.00;;;;12810690;22;20232;-80
2022/08/28 10:30:18;;;;;;;6.43;2.17;;;;;27.60;101538.00;;;;12790047;22;20170;-80
2022/08/28 10:35:28;;;;;;;7.10;1.83;;;;;27.60;101536.00;;;;12859304;22;20170;-79
2022/08/28 10:40:34;;;;;;;8.70;2.35;;;;;27.90;101532.00;;;;12787443;22;20170;-79
2022/08/28 10:45:37;;;;;;;8.30;2.13;;;;;28.40;101538.00;;;;12787396;22;21017;-79
2022/08/28 10:50:47;;;;;;;6.60;1.90;;;;;28.60;101540.00;;;;12813904;22;20177;-79
2022/08/28 10:55:56;;;;;;;3.97;1.90;;;;;28.60;101542.00;;;;12789253;22;20174;-79
2022/08/28 11:01:03;;;;;;;10.38;2.42;;;;;28.60;101551.00;;;;12815567;22;20709;-79
2022/08/28 11:06:12;;;;;;;8.20;2.20;;;;;29.00;101545.00;;;;12862453;22;20198;-79
2022/08/28 11:11:33;;;;;;;5.75;2.00;;;;;28.90;101543.00;;;;12792544;22;20181;-80
2022/08/28 11:16:44;;;;;;;6.22;1.73;;;;;28.70;101533.00;;;;12817979;22;20170;-80
2022/08/28 11:21:48;;;;;;;7.63;2.00;;;;;29.10;101532.00;;;;12815012;22;20181;-80
2022/08/28 11:27:28;;;;;;;5.13;2.03;;;;;28.60;101536.00;;;;12814460;22;20721;-80
2022/08/28 11:32:32;;;;;;;5.07;1.70;;;;;28.90;101533.00;;;;12838809;22;20813;-79
2022/08/28 11:37:40;;;;;;;4.85;1.90;;;;;29.20;101531.00;;;;12837515;22;20605;-79
2022/08/28 11:42:42;;;;;;;8.00;2.28;;;;;29.10;101542.00;;;;12838696;22;20216;-79
2022/08/28 11:47:47;;;;;;;5.90;2.17;;;;;28.90;101541.00;;;;12816056;22;20170;-79
2022/08/28 11:53:30;;;;;;;6.07;2.03;;;;;28.80;101536.00;;;;12837659;22;20170;-79
2022/08/28 11:59:02;;;;;;;5.00;2.00;;;;;29.00;101525.00;;;;12837281;22;20372;-79
2022/08/28 12:04:12;;;;;;;7.85;1.92;;;;;29.30;101525.00;;;;12791899;22;20197;-78
2022/08/28 12:09:25;;;;;;;4.55;2.22;;;;;29.60;101521.00;;;;12864101;22;20177;-78
2022/08/28 12:14:27;;;;;;;6.43;1.80;;;;;29.60;101523.00;;;;12815249;22;20178;-79
2022/08/28 12:19:41;;;;;;;5.00;2.47;;;;;29.60;101530.00;;;;12791550;22;20463;-79
2022/08/28 12:25:05;;;;;;;5.72;1.70;;;;;29.50;101526.00;;;;12815654;22;20269;-79
2022/08/28 12:30:07;;;;;;;3.80;1.70;;;;;29.30;101517.00;;;;12794267;23;20818;-79
2022/08/28 12:35:25;;;;;;;4.72;1.90;;;;;29.30;101514.00;;;;12793124;22;20174;-79
2022/08/28 12:40:52;;;;;;;7.70;1.48;;;;;29.50;101522.00;;;;12835860;22;20185;-80
2022/08/28 12:46:00;;;;;;;6.40;1.70;;;;;29.90;101502.00;;;;12789971;22;20217;-79
2022/08/28 12:51:06;;;;;;;6.32;1.60;;;;;30.10;101505.00;;;;12790764;22;20174;-79
2022/08/28 12:56:10;;;;;;;6.15;1.80;;;;;30.20;101504.00;;;;12836587;22;20209;-79
2022/08/28 13:01:14;;;;;;;5.82;1.92;;;;;30.00;101502.00;;;;12790288;22;20784;-80
2022/08/28 13:06:25;;;;;;;5.35;1.60;;;;;30.10;101506.00;;;;12815661;22;20707;-77
2022/08/28 13:11:35;;;;;;;6.28;1.70;;;;;30.70;101497.00;;;;12836346;22;20180;-80
2022/08/28 13:16:45;;;;;;;7.35;1.90;;;;;32.50;101494.00;;;;12837075;22;20170;-80
2022/08/28 13:21:46;;;;;;;4.35;1.50;;;;;31.40;101501.00;;;;12815323;22;20170;-80
2022/08/28 13:27:11;;;;;;;7.53;1.75;;;;;32.50;101492.00;;;;12835869;22;20197;-79
2022/08/28 13:32:17;;;;;;;6.13;1.83;;;;;31.40;101501.00;;;;12835819;22;20173;-80
2022/08/28 13:37:45;;;;;;;6.03;1.92;;;;;30.40;101485.00;;;;12812906;22;20197;-79
2022/08/28 13:42:47;;;;;;;6.72;1.70;;;;;31.40;101480.00;;;;12814544;22;20197;-80
2022/08/28 13:47:48;;;;;;;4.60;1.33;;;;;33.40;101473.00;;;;12837745;22;20162;-79
2022/08/28 13:52:49;;;;;;;5.47;1.70;;;;;33.70;101489.00;;;;12817965;22;20691;-79
2022/08/28 13:57:51;;;;;;;3.92;1.80;;;;;34.60;101474.00;;;;12791258;22;20166;-79
2022/08/28 14:08:12;;;;;;;3.13;1.50;;;;;33.00;101463.00;;;;12792137;22;20173;-79
2022/08/28 14:13:13;;;;;;;6.80;1.48;;;;;35.20;101449.00;;;;12811984;22;20162;-79
2022/08/28 14:18:16;;;;;;;4.22;1.42;;;;;36.10;101448.00;;;;12818576;22;20856;-79
2022/08/28 14:23:18;;;;;;;3.88;1.38;;;;;36.90;101448.00;;;;12839209;22;20240;-79
2022/08/28 14:28:19;;;;;;;2.30;1.42;;;;;33.90;101438.00;;;;12770046;22;20178;-80
2022/08/28 14:33:21;;;;;;;3.30;1.13;;;;;34.50;101461.00;;;;12791417;22;20170;-80
2022/08/28 14:38:24;;;;;;;3.63;1.40;;;;;36.00;101428.00;;;;12793370;22;20205;-79
2022/08/28 14:43:26;;;;;;;1.92;1.35;;;;;36.90;101429.00;;;;12769379;22;20201;-77
2022/08/28 14:48:28;;;;;;;4.20;1.52;;;;;37.30;101437.00;;;;12792696;22;20616;-77
2022/08/28 14:53:29;;;;;;;2.83;1.35;;;;;37.80;101434.00;;;;12817359;22;20175;-78
2022/08/28 14:58:32;;;;;;;3.67;1.40;;;;;35.60;101457.00;;;;12793541;22;20696;-80
2022/08/28 15:03:34;;;;;;;5.93;1.70;;;;;32.60;101458.00;;;;12840404;22;20186;-79
2022/08/28 15:08:36;;;;;;;3.35;1.40;;;;;28.90;101454.00;;;;12819361;22;20174;-80
2022/08/28 15:13:38;;;;;;;4.07;1.33;;;;;27.90;101446.00;;;;12820065;22;20181;-80
2022/08/28 15:18:40;;;;;;;7.38;1.45;;;;;26.90;101455.00;;;;12794705;22;20166;-80
2022/08/28 15:23:42;;;;;;;4.35;1.33;;;;;26.20;101447.00;;;;12795948;22;20197;-80
2022/08/28 15:28:44;;;;;;;4.03;1.30;;;;;25.70;101445.00;;;;12821225;22;20198;-80
2022/08/28 15:33:45;;;;;;;2.95;1.42;;;;;25.10;101447.00;;;;12797774;22;20225;-80
2022/08/28 15:44:06;;;;;;;9.02;1.50;;;;;24.60;101448.00;;;;12818952;22;20194;-79
2022/08/28 15:49:07;;;;;;;4.82;1.92;;;;;24.80;101437.00;;;;12840778;22;20182;-80
2022/08/28 15:54:11;;;;;;;11.38;1.83;;;;;24.80;101436.00;;;;12839370;22;20224;-80
2022/08/28 15:59:13;;;;;;;3.65;1.20;;;;;24.30;101439.00;;;;12794812;22;20204;-79
2022/08/28 16:04:15;;;;;;;5.75;1.30;;;;;24.10;101436.00;;;;12794332;22;20257;-80
2022/08/28 16:09:17;;;;;;;3.03;1.40;;;;;23.90;101438.00;;;;12795186;22;20249;-79
2022/08/28 16:14:18;;;;;;;3.47;1.23;;;;;23.90;101439.00;;;;12816821;22;20234;-81
2022/08/28 16:19:21;;;;;;;4.72;1.05;;;;;24.10;101436.00;;;;12818694;22;20181;-79
2022/08/28 16:24:23;;;;;;;3.75;1.30;;;;;24.20;101436.00;;;;12819620;22;20712;-80
2022/08/28 16:29:24;;;;;;;2.45;1.38;;;;;24.20;101442.00;;;;12795597;22;20173;-79
2022/08/28 16:34:25;;;;;;;2.65;1.05;;;;;23.90;101449.00;;;;12793928;22;20558;-80
2022/08/28 16:39:32;;;;;;;4.13;1.40;;;;;23.60;101439.00;;;;12819313;22;20193;-80
2022/08/28 16:44:34;;;;;;;2.97;1.33;;;;;23.50;101444.00;;;;12793673;22;20197;-79
2022/08/28 16:49:35;;;;;;;1.80;1.13;;;;;23.40;101447.00;;;;12793525;22;20198;-79
2022/08/28 16:54:36;;;;;;;9.13;1.60;;;;;23.20;101440.00;;;;12791403;22;20220;-79
2022/08/28 16:59:47;;;;;;;2.75;1.20;;;;;23.20;101437.00;;;;12770133;22;20261;-80
2022/08/28 17:04:54;;;;;;;2.78;1.20;;;;;23.10;101434.00;;;;12838422;22;20198;-79
2022/08/28 17:09:56;;;;;;;2.50;1.10;;;;;23.10;101432.00;;;;12864004;22;20194;-79
2022/08/28 17:15:00;;;;;;;3.88;1.35;;;;;23.10;101428.00;;;;12862986;22;20272;-79
2022/08/28 17:20:03;;;;;;;3.33;1.48;;;;;23.00;101426.00;;;;12838171;22;20193;-79
2022/08/28 17:25:12;;;;;;;3.33;1.20;;;;;22.80;101422.00;;;;12814021;22;20209;-80
2022/08/28 17:30:16;;;;;;;3.05;1.38;;;;;22.60;101419.00;;;;12788348;22;20610;-80
2022/08/28 17:35:18;;;;;;;1.92;1.33;;;;;22.30;101422.00;;;;12834501;22;20656;-79
2022/08/28 17:40:21;;;;;;;3.45;1.83;;;;;22.10;101416.00;;;;12836505;22;20169;-79
2022/08/28 17:45:23;;;;;;;4.57;1.40;;;;;21.90;101415.00;;;;12790232;22;20213;-79
2022/08/28 17:50:24;;;;;;;3.30;1.33;;;;;21.60;101423.00;;;;12792150;22;20177;-79
2022/08/28 17:55:28;;;;;;;4.35;1.33;;;;;21.40;101429.00;;;;12792261;22;20173;-78
2022/08/28 18:00:30;;;;;;;1.92;1.30;;;;;21.20;101435.00;;;;12805494;22;20166;-79
2022/08/28 18:05:32;;;;;;;2.72;1.40;;;;;21.10;101439.00;;;;12773600;22;20194;-79
2022/08/28 18:10:34;;;;;;;2.05;1.15;;;;;21.00;101438.00;;;;12835471;22;20725;-77
2022/08/28 18:15:35;;;;;;;4.85;1.45;;;;;20.90;101434.00;;;;12817859;22;20264;-78
2022/08/28 18:20:39;;;;;;;3.70;1.38;;;;;20.70;101435.00;;;;12815549;22;20189;-79
2022/08/28 18:25:40;;;;;;;3.78;1.75;;;;;20.50;101435.00;;;;12862839;22;20193;-79
2022/08/28 18:30:45;;;;;;;3.72;1.20;;;;;20.30;101438.00;;;;12794043;22;20222;-79
2022/08/28 18:35:48;;;;;;;6.53;1.52;;;;;20.00;101445.00;;;;12862509;22;20246;-79
2022/08/28 18:40:50;;;;;;;4.60;1.20;;;;;19.80;101456.00;;;;12836338;22;20162;-78
2022/08/28 18:45:51;;;;;;;2.42;1.15;;;;;19.60;101465.00;;;;12813754;22;20205;-79
2022/08/28 18:50:53;;;;;;;1.75;1.45;;;;;19.50;101473.00;;;;12857209;22;20165;-79
2022/08/28 18:55:54;;;;;;;4.38;1.40;;;;;19.30;101477.00;;;;12813372;22;20181;-79
2022/08/28 19:00:56;;;;;;;2.80;1.30;;;;;19.20;101478.00;;;;12787590;22;20197;-79
2022/08/28 19:05:58;;;;;;;3.50;1.30;;;;;19.10;101487.00;;;;12785362;22;20255;-79
2022/08/28 19:11:06;;;;;;;2.63;0.90;;;;;18.90;101503.00;;;;12828951;22;20232;-80
2022/08/28 19:16:08;;;;;;;3.63;1.45;;;;;18.80;101497.00;;;;12790072;22;20174;-79
2022/08/28 19:21:13;;;;;;;3.50;1.60;;;;;18.60;101496.00;;;;12832996;22;20177;-79
2022/08/28 19:26:17;;;;;;;5.55;1.45;;;;;18.50;101505.00;;;;12790047;22;20194;-78
2022/08/28 19:31:19;;;;;;;3.92;1.67;;;;;18.50;101516.00;;;;12836727;22;20771;-78
2022/08/28 19:36:21;;;;;;;3.15;1.52;;;;;18.40;101513.00;;;;12815581;22;20198;-79
2022/08/28 19:41:23;;;;;;;2.80;1.40;;;;;18.30;101519.00;;;;12815939;22;20597;-78
2022/08/28 19:46:24;;;;;;;3.30;1.58;;;;;18.20;101539.00;;;;12826424;22;20190;-79
2022/08/28 19:51:26;;;;;;;4.38;1.88;;;;;18.10;101537.00;;;;12790580;22;20174;-78
2022/08/28 19:56:30;;;;;;;2.10;1.52;;;;;18.00;101547.00;;;;12790801;22;20179;-79
2022/08/28 20:01:35;;;;;;;4.25;1.30;;;;;17.90;101542.00;;;;12814312;22;20200;-78
2022/08/28 20:06:37;;;;;;;4.72;1.70;;;;;17.90;101552.00;;;;12814423;22;20194;-78
2022/08/28 20:11:40;;;;;;;3.78;1.80;;;;;17.80;101564.00;;;;12790474;22;20186;-78
2022/08/28 20:16:44;;;;;;;2.65;1.88;;;;;17.70;101566.00;;;;12789616;22;20244;-79
2022/08/28 20:21:48;;;;;;;2.85;1.33;;;;;17.60;101569.00;;;;12789025;22;20173;-78
2022/08/28 20:26:51;;;;;;;1.60;1.35;;;;;17.50;101563.00;;;;12787571;22;20194;-79
2022/08/28 20:31:52;;;;;;;5.20;1.85;;;;;17.40;101568.00;;;;12812487;22;20201;-78
2022/08/28 20:36:54;;;;;;;4.38;1.60;;;;;17.30;101560.00;;;;12861463;22;20190;-79
2022/08/28 20:42:04;;;;;;;3.45;1.52;;;;;17.30;101579.00;;;;12784938;22;20270;-79
2022/08/28 20:47:06;;;;;;;3.65;1.63;;;;;17.20;101565.00;;;;12816008;22;20201;-80
2022/08/28 20:52:12;;;;;;;3.35;1.60;;;;;17.20;101575.00;;;;12768678;22;20269;-79
2022/08/28 20:57:16;;;;;;;4.25;2.00;;;;;17.10;101576.00;;;;12770598;22;20173;-79
2022/08/28 21:02:21;;;;;;;3.33;1.85;;;;;17.00;101583.00;;;;12797590;22;20170;-78
2022/08/28 21:07:24;;;;;;;4.50;1.90;;;;;17.00;101573.00;;;;12837843;22;20181;-79
2022/08/28 21:12:25;;;;;;;4.25;1.77;;;;;16.90;101569.00;;;;12794461;22;20189;-79
2022/08/28 21:17:27;;;;;;;3.13;1.75;;;;;16.80;101576.00;;;;12792888;22;20177;-78
2022/08/28 21:22:31;;;;;;;7.72;2.22;;;;;16.80;101573.00;;;;12793048;22;20198;-79
2022/08/28 21:27:35;;;;;;;3.23;1.73;;;;;16.70;101581.00;;;;12840100;22;20247;-80
2022/08/28 21:32:39;;;;;;;5.00;2.25;;;;;16.60;101584.00;;;;12819910;22;20182;-79
2022/08/28 21:37:41;;;;;;;3.50;1.67;;;;;16.50;101585.00;;;;12819911;22;20273;-79
2022/08/28 21:42:43;;;;;;;2.40;1.77;;;;;16.50;101598.00;;;;12767191;22;20201;-79
2022/08/28 21:47:44;;;;;;;5.67;2.00;;;;;16.40;101597.00;;;;12768205;22;20193;-79
2022/08/28 21:52:45;;;;;;;6.30;2.33;;;;;16.40;101596.00;;;;12819069;22;20209;-79
2022/08/28 21:57:47;;;;;;;7.10;2.27;;;;;16.30;101598.00;;;;12813757;22;20603;-79
2022/08/28 22:02:49;;;;;;;3.30;1.63;;;;;16.20;101601.00;;;;12863107;22;20185;-78
2022/08/28 22:07:51;;;;;;;7.13;2.17;;;;;16.20;101594.00;;;;12793829;22;20205;-79
2022/08/28 22:12:52;;;;;;;4.67;1.73;;;;;16.10;101590.00;;;;12792868;22;20181;-79
2022/08/28 22:17:53;;;;;;;3.83;1.70;;;;;16.10;101605.00;;;;12793579;22;20197;-78
2022/08/28 22:23:10;;;;;;;6.87;1.80;;;;;16.00;101604.00;;;;12770921;22;20194;-78
2022/08/28 22:28:11;;;;;;;3.40;2.10;;;;;16.00;101604.00;;;;12794944;22;20184;-79
2022/08/28 22:33:12;;;;;;;3.67;1.90;;;;;15.90;101615.00;;;;12767552;22;20174;-79
2022/08/28 22:38:14;;;;;;;3.53;2.07;;;;;15.80;101614.00;;;;12793607;22;20666;-79
2022/08/28 22:43:17;;;;;;;2.80;1.90;;;;;15.70;101612.00;;;;12844654;22;20190;-79
2022/08/28 22:48:19;;;;;;;7.33;2.30;;;;;15.60;101627.00;;;;12791968;22;20182;-78
2022/08/28 22:53:20;;;;;;;5.30;2.00;;;;;15.50;101618.00;;;;12836395;22;20170;-79
2022/08/28 22:58:22;;;;;;;6.10;2.00;;;;;15.40;101621.00;;;;12865951;22;20241;-79
2022/08/28 23:03:24;;;;;;;4.97;1.77;;;;;15.30;101619.00;;;;12815585;22;20197;-79
2022/08/28 23:08:25;;;;;;;2.90;1.70;;;;;15.30;101621.00;;;;12841126;22;20640;-79
2022/08/28 23:13:30;;;;;;;7.60;1.87;;;;;15.20;101630.00;;;;12820024;22;20257;-78
2022/08/28 23:18:32;;;;;;;3.67;1.83;;;;;15.10;101624.00;;;;12843923;22;20293;-79
2022/08/28 23:23:55;;;;;;;4.97;2.17;;;;;15.00;101625.00;;;;12778429;22;20273;-79
2022/08/28 23:28:56;;;;;;;2.90;1.93;;;;;14.90;101625.00;;;;12796622;22;20178;-79
2022/08/28 23:33:57;;;;;;;4.90;2.17;;;;;14.90;101625.00;;;;12843060;22;20216;-79
2022/08/28 23:39:00;;;;;;;5.67;2.17;;;;;14.80;101633.00;;;;12820386;22;20190;-78
2022/08/28 23:44:02;;;;;;;5.13;2.07;;;;;14.70;101626.00;;;;12842951;22;20178;-79
2022/08/28 23:49:10;;;;;;;4.13;1.80;;;;;14.60;101626.00;;;;12821205;22;20181;-79
2022/08/28 23:54:11;;;;;;;7.30;2.80;;;;;14.50;101631.00;;;;12796168;22;20201;-79
2022/08/28 23:59:12;;;;;;;4.37;2.20;;;;;14.40;101636.00;;;;12869812;22;20162;-78
